sensor_id;sensor_type;location;lat;lon;timestamp;pressure;altitude;pressure_sealevel;temperature;humidity
78825;BME280;68176;45.554;10.220;2023-09-30T04:35:19;100421.16;;;23.88;44.82
78825;BME280;68176;45.554;10.220;2023-09-30T04:37:44;100443.81;;;23.99;45.30
78825;BME280;68176;45.554;10.220;2023-09-30T04:40:13;100431.22;;;23.86;44.95
78825;BME280;68176;45.554;10.220;2023-09-30T04:42:45;100429.38;;;23.86;45.22
78825;BME280;68176;45.554;10.220;2023-09-30T04:45:18;100422.59;;;23.84;45.49
78825;BME280;68176;45.554;10.220;2023-09-30T04:47:46;100426.50;;;23.81;45.34
78825;BME280;68176;45.554;10.220;2023-09-30T04:50:14;100433.91;;;23.86;45.19
78825;BME280;68176;45.554;10.220;2023-09-30T04:52:43;100434.56;;;23.88;45.34
78825;BME280;68176;45.554;10.220;2023-09-30T04:55:13;100426.50;;;23.81;45.09
78825;BME280;68176;45.554;10.220;2023-09-30T04:57:44;100438.88;;;23.76;44.99
78825;BME280;68176;45.554;10.220;2023-09-30T05:00:17;100437.63;;;23.85;45.19
78825;BME280;68176;45.554;10.220;2023-09-30T05:02:44;100451.03;;;23.85;45.59
78825;BME280;68176;45.554;10.220;2023-09-30T05:05:14;100446.09;;;23.82;45.20
78825;BME280;68176;45.554;10.220;2023-09-30T05:07:43;100455.34;;;23.86;45.36
78825;BME280;68176;45.554;10.220;2023-09-30T05:10:13;100443.16;;;23.77;45.34
78825;BME280;68176;45.554;10.220;2023-09-30T05:12:43;100436.78;;;23.71;45.44
78825;BME280;68176;45.554;10.220;2023-09-30T05:15:14;100448.53;;;23.77;45.47
78825;BME280;68176;45.554;10.220;2023-09-30T05:17:45;100440.88;;;23.67;45.55
78825;BME280;68176;45.554;10.220;2023-09-30T05:20:14;100460.91;;;23.78;45.45
78825;BME280;68176;45.554;10.220;2023-09-30T05:22:43;100443.78;;;23.66;45.34
78825;BME280;68176;45.554;10.220;2023-09-30T05:25:14;100465.84;;;23.81;45.26
78825;BME280;68176;45.554;10.220;2023-09-30T05:27:46;100458.19;;;23.71;45.46
78825;BME280;68176;45.554;10.220;2023-09-30T05:30:15;100458.41;;;23.70;45.25
78825;BME280;68176;45.554;10.220;2023-09-30T05:32:43;100462.72;;;23.71;45.40
78825;BME280;68176;45.554;10.220;2023-09-30T05:35:13;100463.97;;;23.75;45.65
78825;BME280;68176;45.554;10.220;2023-09-30T05:37:44;100469.34;;;23.75;45.24
78825;BME280;68176;45.554;10.220;2023-09-30T05:40:13;100483.34;;;23.77;45.62
78825;BME280;68176;45.554;10.220;2023-09-30T05:42:47;100466.47;;;23.70;45.49
78825;BME280;68176;45.554;10.220;2023-09-30T05:45:13;100472.84;;;23.69;45.49
78825;BME280;68176;45.554;10.220;2023-09-30T05:47:43;100434.69;;;23.54;45.56
78825;BME280;68176;45.554;10.220;2023-09-30T05:50:13;100453.22;;;23.62;45.38
78825;BME280;68176;45.554;10.220;2023-09-30T05:52:43;100462.28;;;23.61;45.37
78825;BME280;68176;45.554;10.220;2023-09-30T05:55:13;100467.22;;;23.64;45.15
78825;BME280;68176;45.554;10.220;2023-09-30T05:57:43;100454.03;;;23.56;45.27
78825;BME280;68176;45.554;10.220;2023-09-30T06:00:13;100482.09;;;23.66;45.55
78825;BME280;68176;45.554;10.220;2023-09-30T06:02:54;100477.56;;;23.67;45.39
78825;BME280;68176;45.554;10.220;2023-09-30T06:05:20;100454.84;;;23.50;45.43
78825;BME280;68176;45.554;10.220;2023-09-30T06:07:48;100451.56;;;23.54;45.29
78825;BME280;68176;45.554;10.220;2023-09-30T06:10:15;100455.28;;;23.60;45.68
78825;BME280;68176;45.554;10.220;2023-09-30T06:12:49;100464.78;;;23.62;45.71
78825;BME280;68176;45.554;10.220;2023-09-30T06:15:20;100438.81;;;23.56;45.57
78825;BME280;68176;45.554;10.220;2023-09-30T06:17:52;100438.78;;;23.50;45.29
78825;BME280;68176;45.554;10.220;2023-09-30T06:20:19;100442.91;;;23.59;45.42
78825;BME280;68176;45.554;10.220;2023-09-30T06:22:46;100454.47;;;23.59;45.33
78825;BME280;68176;45.554;10.220;2023-09-30T06:25:17;100456.16;;;23.67;45.56
78825;BME280;68176;45.554;10.220;2023-09-30T06:27:47;100440.03;;;23.54;45.42
78825;BME280;68176;45.554;10.220;2023-09-30T06:30:17;100434.28;;;23.57;45.41
78825;BME280;68176;45.554;10.220;2023-09-30T06:32:46;100436.31;;;23.55;45.53
78825;BME280;68176;45.554;10.220;2023-09-30T06:35:16;100439.41;;;23.52;45.48
78825;BME280;68176;45.554;10.220;2023-09-30T06:37:46;100457.75;;;23.61;45.42
78825;BME280;68176;45.554;10.220;2023-09-30T06:40:16;100443.31;;;23.56;45.64
78825;BME280;68176;45.554;10.220;2023-09-30T06:42:46;100472.22;;;23.67;45.55
78825;BME280;68176;45.554;10.220;2023-09-30T06:45:16;100462.28;;;23.61;45.24
78825;BME280;68176;45.554;10.220;2023-09-30T06:47:46;100476.31;;;23.63;45.40
78825;BME280;68176;45.554;10.220;2023-09-30T06:50:16;100484.56;;;23.68;45.61
78825;BME280;68176;45.554;10.220;2023-09-30T06:52:49;100484.56;;;23.68;45.54
78825;BME280;68176;45.554;10.220;2023-09-30T06:55:16;100493.84;;;23.65;45.33
78825;BME280;68176;45.554;10.220;2023-09-30T06:57:46;100473.22;;;23.59;45.47
78825;BME280;68176;45.554;10.220;2023-09-30T07:00:16;100483.09;;;23.59;45.49
78825;BME280;68176;45.554;10.220;2023-09-30T07:02:46;100483.94;;;23.66;45.67
78825;BME280;68176;45.554;10.220;2023-09-30T07:05:16;100492.59;;;23.68;45.24
78825;BME280;68176;45.554;10.220;2023-09-30T07:07:46;100504.97;;;23.69;45.44
78825;BME280;68176;45.554;10.220;2023-09-30T07:10:16;100504.72;;;23.64;45.63
78825;BME280;68176;45.554;10.220;2023-09-30T07:12:46;100476.47;;;23.55;45.35
78825;BME280;68176;45.554;10.220;2023-09-30T07:15:16;100498.75;;;23.62;45.39
78825;BME280;68176;45.554;10.220;2023-09-30T07:17:46;100499.78;;;23.61;45.47
78825;BME280;68176;45.554;10.220;2023-09-30T07:20:16;100478.34;;;23.48;45.37
78825;BME280;68176;45.554;10.220;2023-09-30T07:22:46;100519.16;;;23.63;45.24
78825;BME280;68176;45.554;10.220;2023-09-30T07:25:16;100510.09;;;23.64;45.23
78825;BME280;68176;45.554;10.220;2023-09-30T07:27:46;100500.19;;;23.58;45.46
78825;BME280;68176;45.554;10.220;2023-09-30T07:30:16;100508.47;;;23.63;45.52
78825;BME280;68176;45.554;10.220;2023-09-30T07:32:46;100524.13;;;23.66;45.40
78825;BME280;68176;45.554;10.220;2023-09-30T07:35:16;100513.81;;;23.63;45.28
78825;BME280;68176;45.554;10.220;2023-09-30T07:37:46;100502.69;;;23.66;45.23
78825;BME280;68176;45.554;10.220;2023-09-30T07:40:16;100500.22;;;23.71;46.06
78825;BME280;68176;45.554;10.220;2023-09-30T07:42:46;100504.94;;;23.21;50.32
78825;BME280;68176;45.554;10.220;2023-09-30T07:45:16;100490.34;;;22.90;50.52
78825;BME280;68176;45.554;10.220;2023-09-30T07:47:46;100489.19;;;23.05;50.16
78825;BME280;68176;45.554;10.220;2023-09-30T07:50:16;100504.97;;;23.28;49.38
78825;BME280;68176;45.554;10.220;2023-09-30T07:52:46;100493.44;;;23.27;49.12
78825;BME280;68176;45.554;10.220;2023-09-30T07:55:16;100506.44;;;23.37;49.09
78825;BME280;68176;45.554;10.220;2023-09-30T07:57:46;100515.81;;;23.48;48.51
78825;BME280;68176;45.554;10.220;2023-09-30T08:00:16;100516.63;;;23.48;48.34
78825;BME280;68176;45.554;10.220;2023-09-30T08:02:46;100510.25;;;23.49;48.24
78825;BME280;68176;45.554;10.220;2023-09-30T08:05:16;100520.38;;;23.54;48.13
78825;BME280;68176;45.554;10.220;2023-09-30T08:07:46;100520.78;;;23.51;48.02
78825;BME280;68176;45.554;10.220;2023-09-30T08:10:16;100513.34;;;23.53;47.76
78825;BME280;68176;45.554;10.220;2023-09-30T08:12:46;100506.56;;;23.50;47.48
78825;BME280;68176;45.554;10.220;2023-09-30T08:15:17;100536.50;;;23.67;48.28
78825;BME280;68176;45.554;10.220;2023-09-30T08:17:46;100532.50;;;23.50;49.91
78825;BME280;68176;45.554;10.220;2023-09-30T08:20:16;100534.06;;;23.37;50.42
78825;BME280;68176;45.554;10.220;2023-09-30T08:22:46;100535.56;;;23.47;50.32
78825;BME280;68176;45.554;10.220;2023-09-30T08:25:16;100528.06;;;23.35;50.14
78825;BME280;68176;45.554;10.220;2023-09-30T08:27:46;100518.13;;;23.29;49.96
78825;BME280;68176;45.554;10.220;2023-09-30T08:30:16;100540.06;;;23.40;50.17
78825;BME280;68176;45.554;10.220;2023-09-30T08:32:46;100530.13;;;23.33;49.87
78825;BME280;68176;45.554;10.220;2023-09-30T08:35:17;100536.72;;;23.37;49.79
78825;BME280;68176;45.554;10.220;2023-09-30T08:37:46;100545.78;;;23.36;49.52
78825;BME280;68176;45.554;10.220;2023-09-30T08:40:23;100529.81;;;23.50;49.51
78825;BME280;68176;45.554;10.220;2023-09-30T08:42:51;100531.50;;;23.57;49.47
78825;BME280;68176;45.554;10.220;2023-09-30T08:45:18;100538.59;;;23.78;49.35
78825;BME280;68176;45.554;10.220;2023-09-30T08:47:47;100539.84;;;23.82;49.59
78825;BME280;68176;45.554;10.220;2023-09-30T08:50:17;100545.22;;;23.82;49.07
78825;BME280;68176;45.554;10.220;2023-09-30T08:52:47;100546.22;;;23.81;49.16
78825;BME280;68176;45.554;10.220;2023-09-30T08:55:16;100543.94;;;23.78;48.96
78825;BME280;68176;45.554;10.220;2023-09-30T08:57:48;100544.38;;;23.81;47.53
78825;BME280;68176;45.554;10.220;2023-09-30T09:00:18;100538.41;;;23.79;48.30
78825;BME280;68176;45.554;10.220;2023-09-30T09:02:47;100540.31;;;23.92;47.82
78825;BME280;68176;45.554;10.220;2023-09-30T09:05:17;100526.69;;;23.94;48.43
78825;BME280;68176;45.554;10.220;2023-09-30T09:07:47;100540.31;;;24.05;48.25
78825;BME280;68176;45.554;10.220;2023-09-30T09:10:17;100546.56;;;24.12;47.77
78825;BME280;68176;45.554;10.220;2023-09-30T09:12:55;100545.25;;;24.08;48.86
78825;BME280;68176;45.554;10.220;2023-09-30T09:15:27;100537.88;;;24.10;47.85
78825;BME280;68176;45.554;10.220;2023-09-30T09:17:56;100534.59;;;24.15;47.62
78825;BME280;68176;45.554;10.220;2023-09-30T09:20:24;100539.38;;;24.26;47.38
78825;BME280;68176;45.554;10.220;2023-09-30T09:22:55;100536.69;;;24.32;48.09
78825;BME280;68176;45.554;10.220;2023-09-30T09:25:23;100550.72;;;24.41;47.61
78825;BME280;68176;45.554;10.220;2023-09-30T09:27:53;100549.06;;;24.47;47.34
78825;BME280;68176;45.554;10.220;2023-09-30T09:30:21;100540.44;;;24.45;47.16
78825;BME280;68176;45.554;10.220;2023-09-30T09:33:04;100543.31;;;24.50;46.82
78825;BME280;68176;45.554;10.220;2023-09-30T09:35:34;100541.66;;;24.42;47.45
78825;BME280;68176;45.554;10.220;2023-09-30T09:38:07;100535.66;;;24.47;47.22
78825;BME280;68176;45.554;10.220;2023-09-30T09:40:35;100537.94;;;24.50;47.50
78825;BME280;68176;45.554;10.220;2023-09-30T09:43:01;100547.84;;;24.56;47.44
78825;BME280;68176;45.554;10.220;2023-09-30T09:45:32;100551.56;;;24.55;47.24
78825;BME280;68176;45.554;10.220;2023-09-30T09:47:58;100556.94;;;24.68;47.17
78825;BME280;68176;45.554;10.220;2023-09-30T09:50:27;100559.41;;;24.76;47.00
78825;BME280;68176;45.554;10.220;2023-09-30T09:52:58;100566.22;;;24.72;46.57
78825;BME280;68176;45.554;10.220;2023-09-30T09:55:27;100562.50;;;24.73;46.67
78825;BME280;68176;45.554;10.220;2023-09-30T09:57:57;100574.72;;;24.88;46.35
78825;BME280;68176;45.554;10.220;2023-09-30T10:00:27;100577.22;;;24.83;46.47
78825;BME280;68176;45.554;10.220;2023-09-30T10:02:57;100575.50;;;24.50;46.37
78825;BME280;68176;45.554;10.220;2023-09-30T10:05:28;100568.69;;;24.54;46.43
78825;BME280;68176;45.554;10.220;2023-09-30T10:08:03;100566.03;;;24.67;46.41
78825;BME280;68176;45.554;10.220;2023-09-30T10:10:35;100563.34;;;24.80;45.78
78825;BME280;68176;45.554;10.220;2023-09-30T10:13:01;100560.66;;;24.67;46.79
78825;BME280;68176;45.554;10.220;2023-09-30T10:18:01;100543.31;;;24.69;46.88
78825;BME280;68176;45.554;10.220;2023-09-30T10:20:33;100528.28;;;24.55;46.74
78825;BME280;68176;45.554;10.220;2023-09-30T10:25:43;100520.59;;;24.59;47.14
78825;BME280;68176;45.554;10.220;2023-09-30T10:28:36;100533.44;;;24.89;46.75
78825;BME280;68176;45.554;10.220;2023-09-30T10:31:14;100527.66;;;24.92;47.14
78825;BME280;68176;45.554;10.220;2023-09-30T10:36:27;100494.63;;;24.99;46.64
78825;BME280;68176;45.554;10.220;2023-09-30T10:38:53;100484.28;;;25.02;46.45
78825;BME280;68176;45.554;10.220;2023-09-30T10:49:49;100502.78;;;25.36;46.70
78825;BME280;68176;45.554;10.220;2023-09-30T10:52:22;100506.63;;;25.47;46.81
78825;BME280;68176;45.554;10.220;2023-09-30T10:54:50;100493.63;;;25.51;46.39
78825;BME280;68176;45.554;10.220;2023-09-30T10:57:36;100474.63;;;25.45;46.46
78825;BME280;68176;45.554;10.220;2023-09-30T11:00:19;100476.06;;;25.55;46.28
78825;BME280;68176;45.554;10.220;2023-09-30T11:03:11;100501.41;;;25.72;46.57
78825;BME280;68176;45.554;10.220;2023-09-30T11:05:39;100456.41;;;25.61;46.34
78825;BME280;68176;45.554;10.220;2023-09-30T11:08:08;100470.81;;;25.73;46.31
78825;BME280;68176;45.554;10.220;2023-09-30T11:10:51;100473.06;;;25.76;46.59
78825;BME280;68176;45.554;10.220;2023-09-30T11:13:22;100445.38;;;25.69;46.60
78825;BME280;68176;45.554;10.220;2023-09-30T11:16:02;100471.09;;;25.96;46.36
78825;BME280;68176;45.554;10.220;2023-09-30T11:18:54;100443.41;;;25.89;46.65
78825;BME280;68176;45.554;10.220;2023-09-30T11:21:35;100450.19;;;25.98;46.68
78825;BME280;68176;45.554;10.220;2023-09-30T11:24:01;100434.03;;;25.98;46.15
78825;BME280;68176;45.554;10.220;2023-09-30T11:26:30;100451.31;;;26.15;46.45
78825;BME280;68176;45.554;10.220;2023-09-30T11:29:25;100442.03;;;26.11;46.13
78825;BME280;68176;45.554;10.220;2023-09-30T11:31:52;100442.84;;;26.18;46.25
78825;BME280;68176;45.554;10.220;2023-09-30T11:34:20;100453.97;;;26.22;46.69
78825;BME280;68176;45.554;10.220;2023-09-30T11:37:01;100437.25;;;26.13;46.52
78825;BME280;68176;45.554;10.220;2023-09-30T11:39:28;100461.28;;;26.39;46.34
78825;BME280;68176;45.554;10.220;2023-09-30T11:41:53;100457.00;;;26.57;43.89
78825;BME280;68176;45.554;10.220;2023-09-30T11:44:22;100465.53;;;26.72;44.11
78825;BME280;68176;45.554;10.220;2023-09-30T11:47:06;100427.91;;;26.47;43.77
78825;BME280;68176;45.554;10.220;2023-09-30T11:50:08;100448.31;;;26.55;44.11
78825;BME280;68176;45.554;10.220;2023-09-30T11:52:33;100439.19;;;26.56;44.17
78825;BME280;68176;45.554;10.220;2023-09-30T11:55:01;100450.44;;;26.71;44.32
78825;BME280;68176;45.554;10.220;2023-09-30T11:57:30;100448.03;;;26.63;44.64
78825;BME280;68176;45.554;10.220;2023-09-30T12:00:00;100438.69;;;26.65;44.48
78825;BME280;68176;45.554;10.220;2023-09-30T12:02:31;100441.53;;;26.70;44.74
78825;BME280;68176;45.554;10.220;2023-09-30T12:05:12;100456.41;;;26.73;45.05
78825;BME280;68176;45.554;10.220;2023-09-30T12:10:40;100465.44;;;26.85;45.05
78825;BME280;68176;45.554;10.220;2023-09-30T12:13:30;100441.91;;;26.74;45.24
78825;BME280;68176;45.554;10.220;2023-09-30T12:16:06;100474.41;;;26.97;45.43
78825;BME280;68176;45.554;10.220;2023-09-30T12:18:35;100448.41;;;26.91;45.16
78825;BME280;68176;45.554;10.220;2023-09-30T12:21:03;100455.34;;;26.98;45.21
78825;BME280;68176;45.554;10.220;2023-09-30T12:23:33;100435.91;;;26.96;45.37
78825;BME280;68176;45.554;10.220;2023-09-30T15:02:48;100337.22;;;29.01;38.50
78825;BME280;68176;45.554;10.220;2023-09-30T15:05:15;100336.19;;;28.90;36.88
78825;BME280;68176;45.554;10.220;2023-09-30T15:07:43;100329.31;;;28.83;38.01
78825;BME280;68176;45.554;10.220;2023-09-30T15:10:13;100334.97;;;28.70;37.05
78825;BME280;68176;45.554;10.220;2023-09-30T15:12:42;100339.91;;;28.49;37.35
78825;BME280;68176;45.554;10.220;2023-09-30T15:15:12;100338.41;;;28.42;39.60
78825;BME280;68176;45.554;10.220;2023-09-30T15:17:43;100343.69;;;28.25;37.12
78825;BME280;68176;45.554;10.220;2023-09-30T15:20:13;100346.50;;;28.30;37.59
78825;BME280;68176;45.554;10.220;2023-09-30T15:22:43;100360.31;;;28.34;38.63
78825;BME280;68176;45.554;10.220;2023-09-30T15:25:13;100353.66;;;28.36;39.27
78825;BME280;68176;45.554;10.220;2023-09-30T15:27:42;100364.31;;;28.31;39.54
78825;BME280;68176;45.554;10.220;2023-09-30T15:30:13;100366.44;;;28.29;39.63
78825;BME280;68176;45.554;10.220;2023-09-30T15:32:43;100351.31;;;28.17;40.17
78825;BME280;68176;45.554;10.220;2023-09-30T15:35:13;100353.66;;;28.13;40.17
78825;BME280;68176;45.554;10.220;2023-09-30T15:37:43;100356.34;;;28.13;40.39
78825;BME280;68176;45.554;10.220;2023-09-30T15:40:13;100338.22;;;28.02;40.71
78825;BME280;68176;45.554;10.220;2023-09-30T15:42:43;100328.28;;;27.91;40.83
78825;BME280;68176;45.554;10.220;2023-09-30T15:45:13;100356.06;;;28.03;40.98
78825;BME280;68176;45.554;10.220;2023-09-30T15:47:43;100335.91;;;27.94;41.08
78825;BME280;68176;45.554;10.220;2023-09-30T15:50:13;100354.09;;;27.98;41.16
78825;BME280;68176;45.554;10.220;2023-09-30T15:52:43;100347.88;;;27.98;41.65
78825;BME280;68176;45.554;10.220;2023-09-30T15:55:13;100345.03;;;27.93;41.73
78825;BME280;68176;45.554;10.220;2023-09-30T15:57:43;100347.16;;;27.91;41.84
78825;BME280;68176;45.554;10.220;2023-09-30T16:00:13;100338.94;;;27.86;41.71
78825;BME280;68176;45.554;10.220;2023-09-30T16:02:43;100345.38;;;27.85;41.83
78825;BME280;68176;45.554;10.220;2023-09-30T16:05:13;100355.72;;;27.88;41.73
78825;BME280;68176;45.554;10.220;2023-09-30T16:07:43;100360.06;;;27.89;42.14
78825;BME280;68176;45.554;10.220;2023-09-30T16:10:13;100348.53;;;27.82;42.29
78825;BME280;68176;45.554;10.220;2023-09-30T16:12:43;100357.09;;;27.79;42.46
78825;BME280;68176;45.554;10.220;2023-09-30T16:15:13;100352.28;;;27.81;42.44
78825;BME280;68176;45.554;10.220;2023-09-30T16:17:43;100353.22;;;27.75;42.76
78825;BME280;68176;45.554;10.220;2023-09-30T16:20:13;100367.75;;;27.74;42.28
78825;BME280;68176;45.554;10.220;2023-09-30T16:22:43;100364.00;;;27.75;42.87
78825;BME280;68176;45.554;10.220;2023-09-30T16:25:13;100374.41;;;27.71;42.63
78825;BME280;68176;45.554;10.220;2023-09-30T16:27:43;100350.72;;;27.62;42.97
78825;BME280;68176;45.554;10.220;2023-09-30T16:30:13;100341.81;;;27.61;43.19
78825;BME280;68176;45.554;10.220;2023-09-30T16:32:43;100342.88;;;27.60;42.97
78825;BME280;68176;45.554;10.220;2023-09-30T16:35:13;100342.63;;;27.62;43.09
78825;BME280;68176;45.554;10.220;2023-09-30T16:37:43;100343.56;;;27.55;42.90
78825;BME280;68176;45.554;10.220;2023-09-30T16:40:13;100349.56;;;27.58;43.32
78825;BME280;68176;45.554;10.220;2023-09-30T16:42:43;100357.66;;;27.58;43.05
78825;BME280;68176;45.554;10.220;2023-09-30T16:45:13;100353.41;;;27.62;43.32
78825;BME280;68176;45.554;10.220;2023-09-30T16:47:43;100343.66;;;27.49;43.32
78825;BME280;68176;45.554;10.220;2023-09-30T16:50:13;100348.22;;;27.48;43.38
78825;BME280;68176;45.554;10.220;2023-09-30T16:52:43;100369.69;;;27.55;43.14
78825;BME280;68176;45.554;10.220;2023-09-30T16:55:13;100378.84;;;27.54;43.55
78825;BME280;68176;45.554;10.220;2023-09-30T16:57:43;100365.53;;;27.41;43.73
78825;BME280;68176;45.554;10.220;2023-09-30T17:00:13;100379.97;;;27.46;43.78
78825;BME280;68176;45.554;10.220;2023-09-30T17:02:43;100384.78;;;27.44;43.48
78825;BME280;68176;45.554;10.220;2023-09-30T17:05:13;100379.81;;;27.41;43.72
78825;BME280;68176;45.554;10.220;2023-09-30T17:07:43;100371.00;;;27.34;43.69
78825;BME280;68176;45.554;10.220;2023-09-30T17:10:13;100377.88;;;27.30;44.16
78825;BME280;68176;45.554;10.220;2023-09-30T17:12:43;100392.56;;;26.62;45.08
78825;BME280;68176;45.554;10.220;2023-09-30T17:15:13;100371.25;;;26.60;45.08
78825;BME280;68176;45.554;10.220;2023-09-30T17:17:43;100378.97;;;26.75;45.01
78825;BME280;68176;45.554;10.220;2023-09-30T17:20:13;100387.50;;;26.90;45.06
78825;BME280;68176;45.554;10.220;2023-09-30T17:22:43;100401.03;;;27.01;44.74
78825;BME280;68176;45.554;10.220;2023-09-30T17:25:13;100392.59;;;26.98;44.79
78825;BME280;68176;45.554;10.220;2023-09-30T17:27:43;100400.97;;;27.08;44.51
78825;BME280;68176;45.554;10.220;2023-09-30T17:30:13;100401.19;;;27.07;44.70
78825;BME280;68176;45.554;10.220;2023-09-30T17:32:43;100415.63;;;27.12;44.51
78825;BME280;68176;45.554;10.220;2023-09-30T17:35:13;100401.03;;;27.01;44.75
78825;BME280;68176;45.554;10.220;2023-09-30T17:37:44;100424.16;;;27.09;44.90
78825;BME280;68176;45.554;10.220;2023-09-30T17:40:13;100415.13;;;27.03;44.64
78825;BME280;68176;45.554;10.220;2023-09-30T17:42:43;100409.34;;;27.00;44.80
78825;BME280;68176;45.554;10.220;2023-09-30T17:45:13;100418.03;;;27.02;44.78
78825;BME280;68176;45.554;10.220;2023-09-30T17:47:43;100432.09;;;27.04;44.89
78825;BME280;68176;45.554;10.220;2023-09-30T17:50:13;100433.72;;;27.05;44.92
78825;BME280;68176;45.554;10.220;2023-09-30T17:52:43;100428.78;;;27.02;45.03
78825;BME280;68176;45.554;10.220;2023-09-30T17:55:14;100444.50;;;27.05;44.80
78825;BME280;68176;45.554;10.220;2023-09-30T17:57:43;100434.03;;;26.97;44.77
78825;BME280;68176;45.554;10.220;2023-09-30T18:00:14;100431.41;;;26.90;44.85
78825;BME280;68176;45.554;10.220;2023-09-30T18:02:43;100439.25;;;26.92;44.97
78825;BME280;68176;45.554;10.220;2023-09-30T18:05:13;100445.09;;;26.89;44.76
78825;BME280;68176;45.554;10.220;2023-09-30T18:07:43;100459.09;;;26.97;44.92
78825;BME280;68176;45.554;10.220;2023-09-30T18:10:14;100458.28;;;26.97;44.78
78825;BME280;68176;45.554;10.220;2023-09-30T18:12:45;100450.91;;;26.86;45.08
78825;BME280;68176;45.554;10.220;2023-09-30T18:15:14;100459.16;;;26.91;44.89
78825;BME280;68176;45.554;10.220;2023-09-30T18:17:44;100467.81;;;26.93;45.06
78825;BME280;68176;45.554;10.220;2023-09-30T18:20:13;100464.56;;;26.91;45.10
78825;BME280;68176;45.554;10.220;2023-09-30T18:22:44;100456.31;;;26.86;45.36
78825;BME280;68176;45.554;10.220;2023-09-30T18:25:14;100469.16;;;26.84;45.05
78825;BME280;68176;45.554;10.220;2023-09-30T18:27:44;100478.22;;;26.89;45.33
78825;BME280;68176;45.554;10.220;2023-09-30T18:30:14;100471.28;;;26.82;45.42
78825;BME280;68176;45.554;10.220;2023-09-30T18:32:44;100461.38;;;26.76;45.11
78825;BME280;68176;45.554;10.220;2023-09-30T18:35:14;100485.31;;;26.84;45.05
78825;BME280;68176;45.554;10.220;2023-09-30T18:37:44;100488.22;;;26.82;45.27
78825;BME280;68176;45.554;10.220;2023-09-30T18:40:14;100487.44;;;26.75;45.29
78825;BME280;68176;45.554;10.220;2023-09-30T18:42:43;100495.28;;;26.77;45.35
78825;BME280;68176;45.554;10.220;2023-09-30T18:45:14;100502.75;;;26.81;45.32
78825;BME280;68176;45.554;10.220;2023-09-30T18:47:44;100488.69;;;26.73;45.12
78825;BME280;68176;45.554;10.220;2023-09-30T18:50:14;100507.72;;;26.78;45.30
78825;BME280;68176;45.554;10.220;2023-09-30T18:52:44;100502.53;;;26.76;45.33
78825;BME280;68176;45.554;10.220;2023-09-30T18:55:14;100490.41;;;26.67;45.38
78825;BME280;68176;45.554;10.220;2023-09-30T18:57:44;100496.63;;;26.68;45.28
78825;BME280;68176;45.554;10.220;2023-09-30T19:00:15;100502.16;;;26.73;45.46
78825;BME280;68176;45.554;10.220;2023-09-30T19:02:44;100493.16;;;26.61;45.46
78825;BME280;68176;45.554;10.220;2023-09-30T19:05:14;100499.91;;;26.70;45.70
78825;BME280;68176;45.554;10.220;2023-09-30T19:07:44;100494.97;;;26.67;45.82
78825;BME280;68176;45.554;10.220;2023-09-30T19:10:14;100496.22;;;26.64;45.74
78825;BME280;68176;45.554;10.220;2023-09-30T19:12:44;100500.00;;;26.63;45.79
78825;BME280;68176;45.554;10.220;2023-09-30T19:15:14;100506.78;;;26.66;45.56
78825;BME280;68176;45.554;10.220;2023-09-30T19:17:44;100508.28;;;26.62;45.51
78825;BME280;68176;45.554;10.220;2023-09-30T19:20:14;100505.00;;;26.60;45.51
78825;BME280;68176;45.554;10.220;2023-09-30T19:22:45;100507.06;;;26.58;45.55
78825;BME280;68176;45.554;10.220;2023-09-30T19:25:14;100501.53;;;26.52;45.73
78825;BME280;68176;45.554;10.220;2023-09-30T19:27:44;100499.03;;;26.51;45.56
78825;BME280;68176;45.554;10.220;2023-09-30T19:30:16;100511.25;;;26.54;45.59
78825;BME280;68176;45.554;10.220;2023-09-30T19:32:44;100521.56;;;26.57;45.56
78825;BME280;68176;45.554;10.220;2023-09-30T19:35:14;100509.00;;;26.50;45.65
78825;BME280;68176;45.554;10.220;2023-09-30T19:37:44;100509.59;;;26.52;45.67
78825;BME280;68176;45.554;10.220;2023-09-30T19:40:14;100510.41;;;26.53;45.71
78825;BME280;68176;45.554;10.220;2023-09-30T19:42:44;100512.72;;;26.49;45.57
78825;BME280;68176;45.554;10.220;2023-09-30T19:45:14;100514.78;;;26.47;45.78
78825;BME280;68176;45.554;10.220;2023-09-30T19:47:44;100516.69;;;26.47;45.74
78825;BME280;68176;45.554;10.220;2023-09-30T19:50:14;100507.25;;;26.38;45.73
78825;BME280;68176;45.554;10.220;2023-09-30T19:52:44;100525.41;;;26.42;45.72
78825;BME280;68176;45.554;10.220;2023-09-30T19:55:14;100508.47;;;26.35;45.78
78825;BME280;68176;45.554;10.220;2023-09-30T19:57:44;100529.13;;;26.41;45.74
78825;BME280;68176;45.554;10.220;2023-09-30T20:00:14;100518.41;;;26.35;46.17
78825;BME280;68176;45.554;10.220;2023-09-30T20:02:44;100524.16;;;26.38;46.01
78825;BME280;68176;45.554;10.220;2023-09-30T20:05:14;100523.78;;;26.35;46.01
78825;BME280;68176;45.554;10.220;2023-09-30T20:07:44;100529.56;;;26.38;46.08
78825;BME280;68176;45.554;10.220;2023-09-30T20:10:14;100518.41;;;26.35;46.01
78825;BME280;68176;45.554;10.220;2023-09-30T20:12:44;100520.50;;;26.33;45.89
78825;BME280;68176;45.554;10.220;2023-09-30T20:15:14;100532.69;;;26.35;46.11
78825;BME280;68176;45.554;10.220;2023-09-30T20:17:44;100523.84;;;26.28;46.10
78825;BME280;68176;45.554;10.220;2023-09-30T20:20:15;100526.31;;;26.30;46.13
78825;BME280;68176;45.554;10.220;2023-09-30T20:22:44;100522.19;;;26.27;46.16
78825;BME280;68176;45.554;10.220;2023-09-30T20:25:14;100519.50;;;26.27;46.24
78825;BME280;68176;45.554;10.220;2023-09-30T20:27:44;100517.69;;;26.21;45.89